Time;durP1;ratioP1;P1;durP2;ratioP2;P2;SDS_P1;SDS_P2;PMS_P1;PMS_P2;Temp;Humidity;BMP_temperature;BMP_pressure;BME280_temperature;BME280_humidity;BME280_pressure;Samples;Min_cycle;Max_cycle;Signal;HPM_P1;HPM_P2
2023/10/10 00:00:46;;;;;;;13.82;4.20;;;;;14.00;94794.00;;;;7406816;19;20148;-93
2023/10/10 00:03:14;;;;;;;10.05;4.38;;;;;14.20;94799.00;;;;7407192;19;20172;-94
2023/10/10 00:05:49;;;;;;;19.23;4.78;;;;;14.20;94793.00;;;;7407717;19;20587;-92
2023/10/10 00:08:20;;;;;;;9.60;4.78;;;;;14.30;94797.00;;;;7406784;19;20156;-95
2023/10/10 00:10:55;;;;;;;12.82;5.53;;;;;14.10;94796.00;;;;7407106;19;20499;-93
2023/10/10 00:13:23;;;;;;;10.18;4.60;;;;;14.20;94792.00;;;;7407982;19;20142;-93
2023/10/10 00:16:02;;;;;;;18.35;5.32;;;;;14.30;94790.00;;;;7408235;19;20136;-93
2023/10/10 00:18:30;;;;;;;12.43;5.68;;;;;14.30;94795.00;;;;7409014;19;20507;-94
2023/10/10 00:21:09;;;;;;;11.55;5.00;;;;;14.50;94788.00;;;;7405761;19;20614;-91
2023/10/10 00:23:47;;;;;;;11.70;5.07;;;;;14.60;94790.00;;;;7401895;19;20188;-90
2023/10/10 00:26:25;;;;;;;13.25;4.88;;;;;14.60;94785.00;;;;7402891;19;20149;-90
2023/10/10 00:28:55;;;;;;;11.10;5.38;;;;;14.50;94778.00;;;;7403049;19;20497;-89
2023/10/10 00:31:31;;;;;;;11.35;4.80;;;;;14.40;94778.00;;;;7401957;19;20132;-90
2023/10/10 00:33:59;;;;;;;12.65;4.50;;;;;14.30;94774.00;;;;7404553;19;20156;-91
2023/10/10 00:36:35;;;;;;;13.05;5.47;;;;;14.40;94776.00;;;;7402120;19;20152;-90
2023/10/10 00:39:21;;;;;;;11.77;5.03;;;;;14.30;94773.00;;;;7404106;19;20513;-90
2023/10/10 00:42:03;;;;;;;11.45;4.70;;;;;14.40;94771.00;;;;7401547;19;20133;-90
2023/10/10 00:44:38;;;;;;;12.23;5.20;;;;;14.30;94768.00;;;;7401215;19;20145;-90
2023/10/10 00:47:26;;;;;;;16.30;5.40;;;;;14.20;94769.00;;;;7399616;19;20155;-90
2023/10/10 00:50:00;;;;;;;12.40;5.50;;;;;14.00;94762.00;;;;7402442;19;20155;-93
2023/10/10 00:52:38;;;;;;;15.80;5.78;;;;;14.20;94759.00;;;;7402209;19;20165;-89
2023/10/10 00:55:13;;;;;;;14.88;5.13;;;;;14.20;94757.00;;;;7402019;19;20160;-90
2023/10/10 00:57:52;;;;;;;14.02;5.43;;;;;14.10;94754.00;;;;7400330;19;20152;-90
2023/10/10 01:00:30;;;;;;;13.80;5.20;;;;;14.30;94759.00;;;;7401237;19;20164;-91
2023/10/10 01:03:21;;;;;;;13.68;5.50;;;;;14.20;94755.00;;;;7405565;19;20151;-94
2023/10/10 01:05:58;;;;;;;10.32;4.80;;;;;14.30;94753.00;;;;7404429;19;20144;-93
2023/10/10 01:08:58;;;;;;;13.38;5.30;;;;;14.30;94748.00;;;;7405835;19;20132;-93
2023/10/10 01:11:34;;;;;;;12.98;5.20;;;;;14.40;94748.00;;;;7404750;19;20145;-94
2023/10/10 01:14:14;;;;;;;12.90;5.53;;;;;14.40;94739.00;;;;7405347;19;20136;-94
2023/10/10 01:17:01;;;;;;;10.40;5.32;;;;;14.40;94734.00;;;;7405650;19;20476;-94
2023/10/10 01:19:29;;;;;;;10.38;5.30;;;;;14.20;94733.00;;;;7406122;19;20579;-94
2023/10/10 01:22:04;;;;;;;14.50;5.40;;;;;14.40;94729.00;;;;7404043;19;20591;-94
2023/10/10 01:24:32;;;;;;;13.77;5.10;;;;;14.50;94737.00;;;;7405541;19;20148;-93
2023/10/10 01:27:21;;;;;;;17.27;5.45;;;;;14.40;94730.00;;;;7404260;19;20175;-94
2023/10/10 01:33:00;;;;;;;18.27;6.35;;;;;14.10;94733.00;;;;7402703;19;20591;-93
2023/10/10 01:35:40;;;;;;;10.02;4.80;;;;;14.10;94731.00;;;;7406071;19;20492;-93
2023/10/10 01:38:44;;;;;;;16.35;5.43;;;;;14.00;94733.00;;;;7403965;19;20145;-94
2023/10/10 01:41:31;;;;;;;12.52;5.13;;;;;14.00;94731.00;;;;7403323;19;20153;-93
2023/10/10 01:44:10;;;;;;;13.48;5.55;;;;;13.90;94722.00;;;;7405726;19;20150;-94
2023/10/10 01:46:45;;;;;;;11.23;5.60;;;;;14.00;94728.00;;;;7404471;19;20734;-93
2023/10/10 01:49:21;;;;;;;11.07;5.43;;;;;13.90;94723.00;;;;7405281;19;20173;-93
2023/10/10 01:51:58;;;;;;;9.10;4.95;;;;;14.00;94724.00;;;;7407391;19;20134;-93
2023/10/10 01:54:40;;;;;;;10.27;4.93;;;;;14.30;94727.00;;;;7403693;19;20145;-94
2023/10/10 01:57:24;;;;;;;10.95;4.93;;;;;14.20;94722.00;;;;7401812;19;20144;-93
2023/10/10 01:59:52;;;;;;;10.45;5.47;;;;;14.10;94717.00;;;;7400375;19;20204;-93
2023/10/10 02:02:30;;;;;;;13.40;5.95;;;;;14.10;94713.00;;;;7401543;19;20196;-93
2023/10/10 02:05:09;;;;;;;12.10;6.28;;;;;14.10;94713.00;;;;7399543;19;20652;-94
2023/10/10 02:07:50;;;;;;;11.35;5.07;;;;;14.00;94718.00;;;;7401763;19;20164;-93
2023/10/10 02:10:43;;;;;;;13.27;5.45;;;;;13.90;94722.00;;;;7405602;19;20599;-93
2023/10/10 02:13:11;;;;;;;12.32;5.85;;;;;13.70;94720.00;;;;7400334;19;20144;-90
2023/10/10 02:15:46;;;;;;;11.73;5.22;;;;;13.80;94706.00;;;;7400463;19;20145;-90
2023/10/10 02:18:54;;;;;;;12.95;6.10;;;;;13.80;94704.00;;;;7398934;19;20144;-90
2023/10/10 02:21:43;;;;;;;12.48;6.43;;;;;13.60;94713.00;;;;7399606;19;20152;-90
2023/10/10 02:24:38;;;;;;;10.43;5.25;;;;;13.70;94711.00;;;;7400299;19;20208;-90
2023/10/10 02:27:13;;;;;;;13.65;6.30;;;;;13.70;94717.00;;;;7399674;19;20148;-90
2023/10/10 02:29:49;;;;;;;17.10;5.90;;;;;13.80;94712.00;;;;7399192;19;20165;-90
2023/10/10 02:32:24;;;;;;;13.25;6.00;;;;;14.10;94703.00;;;;7400056;19;20140;-91
2023/10/10 02:35:26;;;;;;;13.07;5.65;;;;;14.30;94712.00;;;;7401303;19;20124;-89
2023/10/10 02:37:55;;;;;;;13.00;5.65;;;;;14.20;94708.00;;;;7399218;19;20144;-90
2023/10/10 02:40:31;;;;;;;10.55;5.05;;;;;14.30;94706.00;;;;7400397;19;20144;-90
2023/10/10 02:43:32;;;;;;;12.57;5.60;;;;;14.40;94715.00;;;;7400396;19;20621;-90
2023/10/10 02:45:59;;;;;;;13.55;5.82;;;;;14.50;94702.00;;;;7400524;19;20148;-90
2023/10/10 02:48:38;;;;;;;10.85;5.65;;;;;14.40;94694.00;;;;7402145;19;20144;-90
2023/10/10 02:51:15;;;;;;;12.65;5.70;;;;;14.50;94708.00;;;;7401383;19;20145;-90
2023/10/10 02:53:46;;;;;;;12.05;5.57;;;;;14.30;94661.00;;;;7398868;19;20504;-90
2023/10/10 02:56:21;;;;;;;11.07;5.82;;;;;14.10;94696.00;;;;7398223;19;20147;-89
2023/10/10 02:58:55;;;;;;;10.07;4.90;;;;;14.10;94696.00;;;;7397083;19;20538;-90
2023/10/10 03:04:23;;;;;;;14.20;6.25;;;;;14.10;94689.00;;;;7397487;19;20160;-90
2023/10/10 03:06:58;;;;;;;10.45;4.68;;;;;14.20;94693.00;;;;7398358;19;20164;-91
2023/10/10 03:10:05;;;;;;;14.75;5.70;;;;;14.20;94703.00;;;;7396859;19;20228;-89
2023/10/10 03:12:37;;;;;;;13.02;5.20;;;;;14.40;94702.00;;;;7405901;19;20152;-89
2023/10/10 03:15:27;;;;;;;13.43;5.53;;;;;14.50;94693.00;;;;7401485;19;20145;-90
2023/10/10 03:18:15;;;;;;;10.88;4.80;;;;;14.40;94698.00;;;;7405672;19;20184;-92
2023/10/10 03:21:18;;;;;;;13.50;5.88;;;;;14.50;94684.00;;;;7405777;19;20476;-93
2023/10/10 03:24:07;;;;;;;13.35;5.00;;;;;14.30;94693.00;;;;7408525;19;20145;-93
2023/10/10 03:29:21;;;;;;;11.45;5.30;;;;;13.90;94685.00;;;;7410767;19;20153;-93
2023/10/10 03:35:33;;;;;;;12.88;4.88;;;;;14.00;94681.00;;;;7408508;19;20165;-93
2023/10/10 03:37:43;;;;;;;9.45;5.80;;;;;14.00;94683.00;;;;7406332;19;20153;-93
2023/10/10 05:25:50;;;;;;;19.42;7.55;;;;;15.80;94657.00;;;;7399899;19;20513;-89
2023/10/10 05:28:29;;;;;;;13.25;7.10;;;;;15.80;94656.00;;;;7401007;19;20144;-89
2023/10/10 05:31:08;;;;;;;18.80;6.93;;;;;15.80;94654.00;;;;7399920;19;20151;-91
2023/10/10 05:33:43;;;;;;;17.85;6.75;;;;;15.70;94658.00;;;;7399016;19;20145;-90
2023/10/10 05:36:13;;;;;;;11.55;6.03;;;;;15.60;94661.00;;;;7400260;19;20148;-90
2023/10/10 05:38:50;;;;;;;14.50;6.32;;;;;15.50;94659.00;;;;7398693;19;20136;-90
2023/10/10 05:41:19;;;;;;;14.95;6.75;;;;;15.90;94661.00;;;;7401084;19;20495;-93
2023/10/10 05:43:56;;;;;;;14.90;6.78;;;;;15.70;94664.00;;;;7403035;19;20136;-92
2023/10/10 05:46:30;;;;;;;13.30;5.90;;;;;15.40;94668.00;;;;7402539;19;20165;-93
2023/10/10 05:48:59;;;;;;;10.52;5.80;;;;;15.20;94661.00;;;;7404319;19;20161;-92
2023/10/10 05:51:35;;;;;;;13.27;5.40;;;;;15.80;94675.00;;;;7402834;19;20599;-90
2023/10/10 05:54:03;;;;;;;14.25;5.78;;;;;15.90;94673.00;;;;7400131;19;20154;-92
2023/10/10 05:56:37;;;;;;;15.40;7.10;;;;;16.00;94680.00;;;;7401979;19;20587;-93
2023/10/10 05:59:06;;;;;;;12.82;5.68;;;;;15.80;94675.00;;;;7401624;19;20144;-92
2023/10/10 06:01:40;;;;;;;12.32;5.18;;;;;15.80;94677.00;;;;7403556;19;20157;-93
2023/10/10 06:04:08;;;;;;;13.35;5.68;;;;;16.00;94677.00;;;;7402671;19;20489;-92
2023/10/10 06:06:52;;;;;;;16.25;6.50;;;;;16.30;94680.00;;;;7402535;19;20153;-92
2023/10/10 06:09:21;;;;;;;11.95;6.30;;;;;16.50;94682.00;;;;7403879;19;20132;-93
2023/10/10 06:12:03;;;;;;;11.05;5.93;;;;;16.70;94682.00;;;;7403900;19;20137;-93
2023/10/10 06:14:31;;;;;;;11.00;5.70;;;;;16.50;94689.00;;;;7402926;19;20132;-93
2023/10/10 06:17:08;;;;;;;15.75;6.13;;;;;16.70;94682.00;;;;7401393;19;20172;-93
2023/10/10 06:19:45;;;;;;;13.25;5.60;;;;;16.90;94689.00;;;;7398841;19;20148;-93
2023/10/10 06:22:22;;;;;;;15.27;6.28;;;;;16.80;94685.00;;;;7401813;19;20137;-92
2023/10/10 06:24:53;;;;;;;16.48;5.82;;;;;17.10;94682.00;;;;7401139;19;20156;-92
2023/10/10 06:27:32;;;;;;;14.50;6.07;;;;;17.20;94693.00;;;;7401979;19;20154;-93
2023/10/10 06:30:19;;;;;;;11.75;5.38;;;;;17.30;94693.00;;;;7401215;19;20177;-92
2023/10/10 06:33:08;;;;;;;14.70;5.85;;;;;17.30;94688.00;;;;7400653;19;20125;-91
2023/10/10 06:35:52;;;;;;;12.57;5.18;;;;;17.30;94697.00;;;;7400973;19;20475;-94
2023/10/10 06:38:24;;;;;;;16.98;5.85;;;;;17.40;94696.00;;;;7402022;19;20153;-92
2023/10/10 06:41:10;;;;;;;17.45;5.25;;;;;17.40;94698.00;;;;7401616;19;20141;-94
2023/10/10 06:43:48;;;;;;;16.00;5.68;;;;;17.50;94702.00;;;;7402998;19;20137;-92
2023/10/10 06:46:23;;;;;;;11.05;5.63;;;;;17.60;94707.00;;;;7409378;19;20205;-93
2023/10/10 06:48:56;;;;;;;17.17;5.45;;;;;17.60;94707.00;;;;7408464;19;20149;-93
2023/10/10 06:51:30;;;;;;;11.60;4.82;;;;;17.60;94714.00;;;;7408896;19;20152;-92
2023/10/10 06:54:08;;;;;;;12.82;4.97;;;;;17.60;94716.00;;;;7409816;19;20533;-89
2023/10/10 06:56:45;;;;;;;15.07;5.40;;;;;17.60;94716.00;;;;7411668;19;20128;-92
2023/10/10 06:59:16;;;;;;;12.50;5.22;;;;;17.80;94710.00;;;;7406814;19;20149;-92
2023/10/10 07:01:50;;;;;;;12.63;5.35;;;;;17.80;94701.00;;;;7407476;19;20184;-90
2023/10/10 07:04:27;;;;;;;17.17;5.20;;;;;17.90;94705.00;;;;7407159;19;20637;-93
2023/10/10 07:07:01;;;;;;;17.73;5.90;;;;;18.00;94704.00;;;;7407460;19;20153;-92
2023/10/10 07:09:37;;;;;;;20.23;5.15;;;;;18.10;94701.00;;;;7408296;19;20140;-91
2023/10/10 07:12:11;;;;;;;15.95;5.70;;;;;18.20;94692.00;;;;7408184;19;20136;-91
2023/10/10 07:14:53;;;;;;;13.43;5.35;;;;;18.30;94703.00;;;;7406851;19;20141;-89
2023/10/10 07:17:27;;;;;;;22.35;5.55;;;;;18.50;94702.00;;;;7405501;19;20622;-92
2023/10/10 07:22:33;;;;;;;13.10;5.20;;;;;18.60;94701.00;;;;7408687;19;20155;-93
2023/10/10 07:25:31;;;;;;;18.83;5.50;;;;;18.90;94716.00;;;;7408028;19;20133;-92
2023/10/10 07:28:05;;;;;;;19.50;4.68;;;;;19.10;94713.00;;;;7407147;19;20252;-89
2023/10/10 07:30:35;;;;;;;12.85;4.70;;;;;19.20;94713.00;;;;7407500;19;20172;-92
2023/10/10 07:33:13;;;;;;;17.25;5.55;;;;;19.10;94716.00;;;;7409466;19;20133;-94
2023/10/10 07:35:55;;;;;;;17.27;5.32;;;;;19.40;94714.00;;;;7407618;19;20515;-91
2023/10/10 07:38:30;;;;;;;13.50;4.88;;;;;19.60;94717.00;;;;7409339;19;20165;-94
2023/10/10 07:41:04;;;;;;;19.80;5.00;;;;;19.90;94723.00;;;;7407237;19;20151;-93
2023/10/10 07:43:39;;;;;;;18.48;4.57;;;;;19.90;94729.00;;;;7406441;19;20136;-91
2023/10/10 07:46:17;;;;;;;16.00;4.72;;;;;20.10;94727.00;;;;7405133;19;20231;-92
2023/10/10 07:48:54;;;;;;;13.45;5.22;;;;;20.20;94731.00;;;;7407780;19;20129;-94
2023/10/10 07:51:29;;;;;;;22.63;5.70;;;;;20.20;94728.00;;;;7406772;19;20144;-93
2023/10/10 07:54:12;;;;;;;19.70;5.25;;;;;20.30;94737.00;;;;7405609;19;20144;-94
2023/10/10 07:56:47;;;;;;;14.82;4.38;;;;;20.30;94745.00;;;;7405133;19;20597;-93
2023/10/10 07:59:21;;;;;;;15.13;4.22;;;;;20.40;94737.00;;;;7404773;19;20141;-93
2023/10/10 08:01:59;;;;;;;13.07;4.43;;;;;20.60;94734.00;;;;7403461;19;20243;-92
2023/10/10 08:04:37;;;;;;;17.08;4.72;;;;;20.90;94737.00;;;;7405628;19;20529;-92
2023/10/10 08:07:18;;;;;;;16.17;4.95;;;;;20.70;94741.00;;;;7401891;19;20136;-90
2023/10/10 08:09:49;;;;;;;16.90;4.90;;;;;20.90;94734.00;;;;7406458;19;20144;-92
2023/10/10 08:12:29;;;;;;;8.73;3.90;;;;;21.40;94728.00;;;;7406846;19;20144;-93
2023/10/10 08:15:17;;;;;;;18.02;5.07;;;;;21.70;94732.00;;;;7405444;19;20627;-93
2023/10/10 08:17:54;;;;;;;18.33;4.25;;;;;21.80;94735.00;;;;7406935;19;20604;-91
2023/10/10 08:23:07;;;;;;;14.60;5.22;;;;;21.80;94729.00;;;;7402987;19;20145;-94
2023/10/10 08:25:37;;;;;;;15.25;5.38;;;;;21.70;94734.00;;;;7404795;19;20683;-94
2023/10/10 08:28:12;;;;;;;16.65;5.35;;;;;22.10;94728.00;;;;7407051;19;20144;-93
2023/10/10 08:30:50;;;;;;;18.20;5.43;;;;;22.30;94740.00;;;;7403394;19;20141;-93
2023/10/10 08:33:31;;;;;;;19.90;4.93;;;;;22.80;94740.00;;;;7405339;19;20612;-95
2023/10/10 08:36:05;;;;;;;16.13;5.80;;;;;23.00;94733.00;;;;7407230;19;20751;-90
2023/10/10 08:38:41;;;;;;;18.40;6.05;;;;;23.40;94736.00;;;;7405590;19;20148;-91
2023/10/10 08:41:21;;;;;;;13.88;5.55;;;;;23.30;94733.00;;;;7402652;19;20145;-91
2023/10/10 08:43:53;;;;;;;17.90;5.47;;;;;23.20;94736.00;;;;7400425;19;20168;-90
2023/10/10 08:46:30;;;;;;;17.13;5.53;;;;;23.30;94730.00;;;;7404538;19;20128;-93
2023/10/10 08:49:00;;;;;;;18.25;6.05;;;;;23.50;94735.00;;;;7402427;19;20151;-91
2023/10/10 08:51:35;;;;;;;11.60;5.63;;;;;22.80;94729.00;;;;7403540;19;20887;-90
2023/10/10 08:54:12;;;;;;;16.05;6.07;;;;;22.90;94729.00;;;;7404632;19;20167;-91
2023/10/10 08:56:59;;;;;;;11.82;6.03;;;;;22.80;94728.00;;;;7403273;19;20156;-92
2023/10/10 08:59:35;;;;;;;16.73;5.75;;;;;22.80;94723.00;;;;7400677;19;20156;-91
2023/10/10 09:02:17;;;;;;;14.30;6.65;;;;;23.10;94735.00;;;;7401116;19;20137;-92
2023/10/10 09:04:58;;;;;;;13.73;5.55;;;;;22.90;94733.00;;;;7403406;19;20615;-90
2023/10/10 09:07:34;;;;;;;21.73;6.22;;;;;23.20;94728.00;;;;7401716;19;20144;-93
2023/10/10 09:10:15;;;;;;;16.17;5.45;;;;;23.80;94731.00;;;;7400476;19;20145;-91
2023/10/10 09:12:58;;;;;;;17.02;5.68;;;;;24.20;94726.00;;;;7402527;19;20132;-93
2023/10/10 09:15:34;;;;;;;13.85;5.85;;;;;24.00;94736.00;;;;7405116;19;20137;-93
2023/10/10 09:18:22;;;;;;;13.77;6.20;;;;;23.80;94732.00;;;;7403738;19;20513;-93
2023/10/10 09:21:18;;;;;;;10.70;5.88;;;;;24.10;94735.00;;;;7401857;19;20168;-92
2023/10/10 09:24:07;;;;;;;11.32;5.82;;;;;23.70;94726.00;;;;7403873;19;20145;-92
2023/10/10 09:26:42;;;;;;;12.45;5.78;;;;;23.70;94721.00;;;;7402835;19;20264;-91
2023/10/10 09:29:18;;;;;;;9.13;5.40;;;;;23.90;94738.00;;;;7403071;19;20172;-91
2023/10/10 09:31:59;;;;;;;13.70;6.35;;;;;23.50;94741.00;;;;7406147;19;20147;-93
2023/10/10 09:34:35;;;;;;;14.85;5.78;;;;;23.60;94737.00;;;;7404099;19;20210;-91
2023/10/10 09:37:17;;;;;;;13.75;5.57;;;;;23.40;94736.00;;;;7406463;19;20149;-93
2023/10/10 09:39:55;;;;;;;10.27;5.30;;;;;24.00;94735.00;;;;7405653;19;20164;-91
2023/10/10 09:43:03;;;;;;;14.95;6.40;;;;;24.10;94726.00;;;;7401950;19;20144;-92
2023/10/10 09:45:55;;;;;;;13.25;6.00;;;;;23.90;94734.00;;;;7401428;19;20619;-90
2023/10/10 09:49:15;;;;;;;12.82;6.70;;;;;23.90;94738.00;;;;7401131;19;20148;-92
2023/10/10 09:54:25;;;;;;;14.50;6.38;;;;;24.20;94734.00;;;;7402770;19;20144;-91
2023/10/10 09:56:54;;;;;;;15.02;5.90;;;;;23.70;94739.00;;;;7403056;19;20165;-92
2023/10/10 09:59:30;;;;;;;13.00;5.93;;;;;23.60;94741.00;;;;7404567;19;20135;-90
2023/10/10 10:02:00;;;;;;;14.45;5.95;;;;;23.80;94754.00;;;;7399618;19;20143;-91
2023/10/10 10:04:41;;;;;;;11.00;5.93;;;;;24.10;94747.00;;;;7399324;19;20177;-90
2023/10/10 10:07:59;;;;;;;14.90;6.18;;;;;24.20;94746.00;;;;7400909;19;20144;-91
2023/10/10 10:10:48;;;;;;;11.88;6.15;;;;;24.50;94750.00;;;;7400138;19;20137;-89
2023/10/10 10:13:57;;;;;;;9.90;5.78;;;;;24.00;94752.00;;;;7400542;19;20137;-88
2023/10/10 10:17:12;;;;;;;12.00;5.65;;;;;24.10;94755.00;;;;7400878;19;20152;-89
2023/10/10 10:19:47;;;;;;;10.18;5.82;;;;;24.40;94755.00;;;;7400433;19;20148;-89
2023/10/10 10:22:21;;;;;;;8.93;5.75;;;;;24.70;94755.00;;;;7408933;19;20144;-89
2023/10/10 10:25:20;;;;;;;15.65;6.65;;;;;24.30;94756.00;;;;7407988;19;20145;-86
2023/10/10 10:27:59;;;;;;;11.43;6.05;;;;;24.10;94760.00;;;;7407999;19;20221;-90
2023/10/10 10:33:02;;;;;;;12.52;6.60;;;;;24.50;94757.00;;;;7407810;19;20172;-89
2023/10/10 10:35:56;;;;;;;11.88;7.20;;;;;24.20;94759.00;;;;7407905;19;20128;-88
2023/10/10 10:38:31;;;;;;;12.40;6.38;;;;;24.70;94747.00;;;;7405354;19;20128;-88
2023/10/10 10:41:17;;;;;;;12.90;7.38;;;;;24.90;94748.00;;;;7404120;19;20142;-89
2023/10/10 10:43:51;;;;;;;15.50;7.70;;;;;25.10;94747.00;;;;7406984;19;20145;-88
2023/10/10 10:46:28;;;;;;;14.65;7.25;;;;;24.90;94750.00;;;;7404956;19;20593;-90
2023/10/10 10:49:12;;;;;;;14.68;7.15;;;;;25.20;94748.00;;;;7404964;19;20225;-87
2023/10/10 10:51:49;;;;;;;13.63;7.45;;;;;25.00;94744.00;;;;7405393;19;20157;-88
2023/10/10 10:54:35;;;;;;;14.10;7.82;;;;;24.90;94745.00;;;;7406811;19;20212;-89
2023/10/10 10:57:27;;;;;;;13.98;7.43;;;;;24.90;94746.00;;;;7404467;19;20153;-89
2023/10/10 11:00:41;;;;;;;20.33;8.60;;;;;24.90;94744.00;;;;7406349;19;20176;-90
2023/10/10 11:03:11;;;;;;;12.40;7.68;;;;;24.50;94749.00;;;;7406070;19;20136;-89
2023/10/10 11:05:54;;;;;;;14.75;7.82;;;;;25.30;94754.00;;;;7404028;19;20263;-90
2023/10/10 11:08:51;;;;;;;14.07;8.35;;;;;25.70;94752.00;;;;7409611;19;20584;-90
2023/10/10 11:14:23;;;;;;;16.58;8.65;;;;;25.50;94745.00;;;;7405292;19;20145;-89
2023/10/10 11:16:57;;;;;;;16.48;9.00;;;;;25.50;94741.00;;;;7403719;19;20599;-90
2023/10/10 11:22:12;;;;;;;15.93;8.50;;;;;25.70;94742.00;;;;7403294;19;20192;-90
2023/10/10 11:24:57;;;;;;;11.63;7.40;;;;;25.30;94733.00;;;;7406061;19;20149;-92
2023/10/10 11:27:43;;;;;;;12.35;8.27;;;;;25.80;94737.00;;;;7405732;19;20141;-89
2023/10/10 11:30:24;;;;;;;14.40;9.35;;;;;25.30;94727.00;;;;7403814;19;20152;-87
2023/10/10 11:33:16;;;;;;;14.23;8.07;;;;;26.00;94725.00;;;;7402247;19;20611;-89
2023/10/10 11:36:01;;;;;;;14.52;8.65;;;;;26.70;94721.00;;;;7403798;19;20160;-88
2023/10/10 11:38:36;;;;;;;14.57;9.00;;;;;25.90;94718.00;;;;7403991;19;20149;-88
2023/10/10 11:41:11;;;;;;;12.80;8.65;;;;;26.20;94711.00;;;;7403508;19;20141;-88
2023/10/10 11:43:57;;;;;;;17.83;8.77;;;;;26.00;94708.00;;;;7403930;19;20611;-87
2023/10/10 11:46:32;;;;;;;13.15;7.80;;;;;26.50;94706.00;;;;7403962;19;20137;-88
2023/10/10 11:49:15;;;;;;;16.35;8.30;;;;;26.70;94713.00;;;;7404177;19;20164;-88
2023/10/10 11:51:43;;;;;;;11.27;7.93;;;;;26.90;94711.00;;;;7402155;19;20136;-87
2023/10/10 11:54:25;;;;;;;13.90;8.27;;;;;26.20;94713.00;;;;7404691;19;20690;-88
2023/10/10 11:56:53;;;;;;;12.95;7.28;;;;;26.50;94712.00;;;;7405411;19;20147;-89
2023/10/10 11:59:28;;;;;;;11.68;7.75;;;;;26.40;94701.00;;;;7404741;19;20132;-88
2023/10/10 12:02:07;;;;;;;13.13;7.68;;;;;26.30;94708.00;;;;7400970;19;20141;-89
2023/10/10 12:04:50;;;;;;;14.52;7.80;;;;;26.30;94706.00;;;;7403994;19;20184;-89
2023/10/10 12:07:26;;;;;;;11.20;7.68;;;;;26.20;94707.00;;;;7403844;19;20624;-89
2023/10/10 12:10:07;;;;;;;14.18;7.03;;;;;25.60;94709.00;;;;7404393;19;20136;-88
2023/10/10 12:12:45;;;;;;;12.98;6.97;;;;;26.10;94699.00;;;;7405551;19;20145;-90
2023/10/10 12:15:19;;;;;;;13.55;7.68;;;;;26.00;94707.00;;;;7406028;19;20125;-89
2023/10/10 12:17:53;;;;;;;14.77;7.38;;;;;25.90;94693.00;;;;7405091;19;20140;-89
2023/10/10 12:20:25;;;;;;;12.85;6.95;;;;;25.40;94699.00;;;;7405861;19;20207;-90
2023/10/10 12:23:00;;;;;;;12.85;7.03;;;;;25.30;94707.00;;;;7404566;19;20524;-90
2023/10/10 12:25:28;;;;;;;12.52;6.63;;;;;25.40;94697.00;;;;7404763;19;20148;-88
2023/10/10 12:28:03;;;;;;;12.63;6.80;;;;;25.20;94692.00;;;;7405264;19;20136;-90
2023/10/10 12:30:33;;;;;;;13.00;6.50;;;;;25.10;94692.00;;;;7407215;19;20152;-91
2023/10/10 12:33:16;;;;;;;11.60;6.43;;;;;25.70;94684.00;;;;7406175;19;20149;-90
2023/10/10 12:35:51;;;;;;;18.27;7.03;;;;;26.10;94683.00;;;;7404602;19;20236;-90
2023/10/10 12:38:22;;;;;;;9.73;5.55;;;;;26.70;94685.00;;;;7404660;19;20146;-88
2023/10/10 12:40:56;;;;;;;14.75;6.85;;;;;26.90;94678.00;;;;7404085;19;20148;-89
2023/10/10 12:43:24;;;;;;;10.93;5.90;;;;;26.10;94682.00;;;;7403863;19;20146;-87
2023/10/10 12:45:55;;;;;;;14.73;6.18;;;;;26.30;94675.00;;;;7404067;19;20141;-91
2023/10/10 12:48:31;;;;;;;10.30;5.75;;;;;26.60;94685.00;;;;7404350;19;20148;-89
2023/10/10 12:51:00;;;;;;;10.77;4.93;;;;;26.90;94680.00;;;;7404043;19;20157;-93
2023/10/10 12:53:32;;;;;;;9.27;5.07;;;;;27.00;94679.00;;;;7404320;19;20158;-89
2023/10/10 12:56:12;;;;;;;15.45;5.55;;;;;26.90;94675.00;;;;7404828;19;20485;-90
2023/10/10 12:58:43;;;;;;;11.40;5.40;;;;;27.10;94676.00;;;;7402625;19;20165;-88
2023/10/10 13:01:23;;;;;;;9.73;5.30;;;;;27.30;94669.00;;;;7402475;19;20172;-91
2023/10/10 13:03:51;;;;;;;10.55;5.53;;;;;27.50;94674.00;;;;7405737;19;20136;-90
2023/10/10 13:06:36;;;;;;;9.15;5.07;;;;;27.00;94681.00;;;;7404644;19;20188;-92
2023/10/10 13:09:14;;;;;;;13.07;4.75;;;;;26.90;94675.00;;;;7408409;19;20133;-91
2023/10/10 13:11:48;;;;;;;10.23;4.43;;;;;26.70;94690.00;;;;7404588;19;20587;-89
2023/10/10 13:14:19;;;;;;;11.15;4.72;;;;;26.30;94688.00;;;;7405070;19;20161;-89
2023/10/10 13:16:53;;;;;;;9.27;5.05;;;;;25.80;94697.00;;;;7405114;19;20140;-91
2023/10/10 13:19:21;;;;;;;10.13;4.05;;;;;25.80;94692.00;;;;7403732;19;20133;-91
2023/10/10 13:22:20;;;;;;;7.57;4.25;;;;;25.70;94685.00;;;;7403123;19;20150;-91
2023/10/10 13:25:01;;;;;;;12.73;5.75;;;;;25.70;94685.00;;;;7405636;19;20174;-92
2023/10/10 13:27:36;;;;;;;12.38;5.60;;;;;25.20;94692.00;;;;7403903;19;20136;-92
2023/10/10 13:30:13;;;;;;;7.90;4.20;;;;;25.30;94689.00;;;;7407743;19;20140;-90
2023/10/10 13:32:41;;;;;;;13.57;5.13;;;;;24.90;94693.00;;;;7406592;19;20613;-88
2023/10/10 13:35:10;;;;;;;9.90;5.18;;;;;24.90;94688.00;;;;7406340;19;20157;-90
2023/10/10 13:37:44;;;;;;;10.65;5.00;;;;;25.00;94693.00;;;;7404588;19;20140;-91
2023/10/10 13:40:21;;;;;;;11.75;4.70;;;;;24.90;94685.00;;;;7405046;19;20133;-90
2023/10/10 13:42:59;;;;;;;8.90;4.53;;;;;24.50;94681.00;;;;7405996;19;20129;-91
2023/10/10 13:45:28;;;;;;;12.05;6.80;;;;;24.30;94694.00;;;;7405062;19;20137;-90
2023/10/10 13:48:04;;;;;;;9.73;4.57;;;;;24.70;94682.00;;;;7406010;19;20456;-89
2023/10/10 13:50:41;;;;;;;12.27;4.55;;;;;24.80;94675.00;;;;7405142;19;20176;-90
2023/10/10 13:53:15;;;;;;;9.32;4.55;;;;;24.80;94672.00;;;;7406509;19;20373;-88
2023/10/10 13:55:47;;;;;;;9.48;5.15;;;;;24.80;94670.00;;;;7400824;19;20136;-88
2023/10/10 13:58:21;;;;;;;9.20;4.82;;;;;25.40;94676.00;;;;7400821;19;20656;-89
2023/10/10 14:01:03;;;;;;;11.18;6.00;;;;;25.60;94670.00;;;;7401608;19;20137;-89
2023/10/10 14:03:35;;;;;;;8.88;4.40;;;;;25.50;94673.00;;;;7400964;19;20140;-89
2023/10/10 14:06:12;;;;;;;11.90;4.97;;;;;25.60;94670.00;;;;7398755;19;20176;-89
2023/10/10 14:08:57;;;;;;;8.93;4.93;;;;;25.30;94676.00;;;;7400522;19;20192;-88
2023/10/10 14:11:25;;;;;;;9.60;4.45;;;;;25.20;94674.00;;;;7400570;19;20136;-88
2023/10/10 14:13:59;;;;;;;8.35;4.13;;;;;24.80;94669.00;;;;7400592;19;20124;-90
2023/10/10 14:16:33;;;;;;;8.77;4.00;;;;;24.50;94663.00;;;;7399931;19;20168;-87
2023/10/10 14:19:07;;;;;;;8.40;4.13;;;;;24.20;94665.00;;;;7401346;19;20168;-89
2023/10/10 14:21:38;;;;;;;10.52;4.80;;;;;23.90;94665.00;;;;7400949;19;20145;-88
2023/10/10 14:24:13;;;;;;;9.63;5.07;;;;;23.60;94664.00;;;;7399643;19;20147;-88
2023/10/10 14:26:51;;;;;;;8.25;4.22;;;;;23.90;94668.00;;;;7399082;19;20182;-89
2023/10/10 14:29:32;;;;;;;6.18;3.55;;;;;23.70;94673.00;;;;7399051;19;20179;-89
2023/10/10 14:32:10;;;;;;;9.18;4.18;;;;;23.70;94670.00;;;;7401518;19;20137;-89
2023/10/10 14:34:53;;;;;;;20.73;13.73;;;;;23.40;94660.00;;;;7399969;19;20191;-89
2023/10/10 14:37:27;;;;;;;13.02;8.88;;;;;23.20;94677.00;;;;7402250;19;20140;-90
2023/10/10 14:40:15;;;;;;;10.82;4.57;;;;;23.50;94674.00;;;;7401218;19;20137;-90
2023/10/10 14:42:55;;;;;;;9.35;4.65;;;;;23.20;94666.00;;;;7398600;19;20188;-88
2023/10/10 14:45:29;;;;;;;11.25;4.85;;;;;23.30;94670.00;;;;7398879;19;20148;-90
2023/10/10 14:48:04;;;;;;;13.15;4.10;;;;;23.40;94671.00;;;;7399375;19;20165;-92
2023/10/10 14:50:39;;;;;;;7.50;4.60;;;;;23.40;94663.00;;;;7399899;19;20137;-89
2023/10/10 14:53:15;;;;;;;9.13;4.43;;;;;23.40;94661.00;;;;7398609;19;20144;-89
2023/10/10 14:55:44;;;;;;;15.30;7.32;;;;;23.50;94664.00;;;;7395080;19;20204;-88
2023/10/10 14:58:22;;;;;;;15.30;5.53;;;;;23.30;94657.00;;;;7399026;19;20149;-89
2023/10/10 15:00:57;;;;;;;47.70;31.33;;;;;23.30;94666.00;;;;7399644;19;20224;-89
2023/10/10 15:03:44;;;;;;;40.92;26.63;;;;;23.20;94671.00;;;;7396924;19;20187;-88
2023/10/10 15:06:43;;;;;;;7.47;3.70;;;;;23.10;94669.00;;;;7401885;19;20156;-87
2023/10/10 15:09:24;;;;;;;8.13;4.53;;;;;22.90;94669.00;;;;7407582;19;20174;-88
2023/10/10 15:11:58;;;;;;;11.15;4.60;;;;;22.60;94670.00;;;;7410186;19;20219;-89
2023/10/10 15:14:31;;;;;;;9.70;6.40;;;;;22.40;94684.00;;;;7409221;19;20149;-89
2023/10/10 15:17:09;;;;;;;9.43;5.25;;;;;22.10;94667.00;;;;7410361;19;20144;-90